Jalappa, Pennsylvania
Current Conditions -  °F | °C
As of 8:54 PM on Saturday 22 Nov 2014 (Local Time) from KRDG Reporting Station
Broken Clouds Broken Clouds  
Wind Chill: 41°   Ceiling: 11000
Heat Index: 41°   Visibility: 10mi
Dew Point: 21°   Wind: 0mph
Humidity: 45%   Direction: NA
Pressure: 30.23"   Gusts: NA
Location:  40.5494°N, 75.999°W
Report Text: KRDG 230154Z AUTO 00000KT 10SM FEW085 BKN110 05/M06 A3023 RMK AO2 SLP245 T00501061
Loading
Personal Weather Stations






























Interactive Weather Map New forecast layout! Learn more

10-Day Weather Forecast

Advertisements
Track Severe Weather on mobile